sensor_id;sensor_type;location;lat;lon;timestamp;P1;durP1;ratioP1;P2;durP2;ratioP2
23714;SDS011;12036;50.858;4.472;2024-01-11T00:00:47;39.75;;;18.80;;
23714;SDS011;12036;50.858;4.472;2024-01-11T00:03:13;35.97;;;19.17;;
23714;SDS011;12036;50.858;4.472;2024-01-11T00:05:39;34.47;;;16.98;;
23714;SDS011;12036;50.858;4.472;2024-01-11T00:08:06;35.72;;;16.67;;
23714;SDS011;12036;50.858;4.472;2024-01-11T00:10:32;34.00;;;17.30;;
23714;SDS011;12036;50.858;4.472;2024-01-11T00:12:58;38.33;;;18.48;;
23714;SDS011;12036;50.858;4.472;2024-01-11T00:15:23;38.10;;;16.98;;
23714;SDS011;12036;50.858;4.472;2024-01-11T00:17:49;36.08;;;16.98;;
23714;SDS011;12036;50.858;4.472;2024-01-11T00:20:15;37.28;;;17.42;;
23714;SDS011;12036;50.858;4.472;2024-01-11T00:22:40;36.70;;;16.88;;
23714;SDS011;12036;50.858;4.472;2024-01-11T00:25:06;36.75;;;16.50;;
23714;SDS011;12036;50.858;4.472;2024-01-11T00:27:33;34.20;;;16.23;;
23714;SDS011;12036;50.858;4.472;2024-01-11T00:29:59;35.33;;;16.83;;
23714;SDS011;12036;50.858;4.472;2024-01-11T00:32:24;40.35;;;18.40;;
23714;SDS011;12036;50.858;4.472;2024-01-11T00:34:50;33.25;;;17.23;;
23714;SDS011;12036;50.858;4.472;2024-01-11T00:37:16;43.08;;;16.77;;
23714;SDS011;12036;50.858;4.472;2024-01-11T00:39:41;36.58;;;16.95;;
23714;SDS011;12036;50.858;4.472;2024-01-11T00:42:07;36.90;;;16.92;;
23714;SDS011;12036;50.858;4.472;2024-01-11T00:44:33;33.80;;;17.08;;
23714;SDS011;12036;50.858;4.472;2024-01-11T00:46:59;33.20;;;17.35;;
23714;SDS011;12036;50.858;4.472;2024-01-11T00:49:24;32.92;;;17.15;;
23714;SDS011;12036;50.858;4.472;2024-01-11T00:51:50;31.88;;;15.50;;
23714;SDS011;12036;50.858;4.472;2024-01-11T00:54:15;35.17;;;16.48;;
23714;SDS011;12036;50.858;4.472;2024-01-11T00:56:41;35.28;;;17.05;;
23714;SDS011;12036;50.858;4.472;2024-01-11T00:59:07;32.78;;;15.88;;
23714;SDS011;12036;50.858;4.472;2024-01-11T01:01:32;36.50;;;16.60;;
23714;SDS011;12036;50.858;4.472;2024-01-11T01:03:58;34.03;;;17.52;;
23714;SDS011;12036;50.858;4.472;2024-01-11T01:06:24;33.30;;;16.85;;
23714;SDS011;12036;50.858;4.472;2024-01-11T01:08:49;39.47;;;15.88;;
23714;SDS011;12036;50.858;4.472;2024-01-11T01:11:15;37.90;;;16.23;;
23714;SDS011;12036;50.858;4.472;2024-01-11T01:13:41;31.92;;;16.10;;
23714;SDS011;12036;50.858;4.472;2024-01-11T01:16:06;35.70;;;16.60;;
23714;SDS011;12036;50.858;4.472;2024-01-11T01:18:32;38.92;;;17.02;;
23714;SDS011;12036;50.858;4.472;2024-01-11T01:20:57;35.42;;;16.75;;
23714;SDS011;12036;50.858;4.472;2024-01-11T01:23:23;34.88;;;17.33;;
23714;SDS011;12036;50.858;4.472;2024-01-11T01:25:49;34.30;;;16.02;;
23714;SDS011;12036;50.858;4.472;2024-01-11T01:28:14;37.30;;;17.40;;
23714;SDS011;12036;50.858;4.472;2024-01-11T01:30:40;33.33;;;16.05;;
23714;SDS011;12036;50.858;4.472;2024-01-11T01:33:06;43.50;;;17.67;;
23714;SDS011;12036;50.858;4.472;2024-01-11T01:35:31;36.13;;;16.75;;
23714;SDS011;12036;50.858;4.472;2024-01-11T01:37:58;36.30;;;17.25;;
23714;SDS011;12036;50.858;4.472;2024-01-11T01:40:24;37.17;;;17.85;;
23714;SDS011;12036;50.858;4.472;2024-01-11T01:42:49;34.17;;;17.48;;
23714;SDS011;12036;50.858;4.472;2024-01-11T01:45:15;37.42;;;18.10;;
23714;SDS011;12036;50.858;4.472;2024-01-11T01:47:42;39.25;;;17.65;;
23714;SDS011;12036;50.858;4.472;2024-01-11T01:50:09;43.33;;;17.73;;
23714;SDS011;12036;50.858;4.472;2024-01-11T01:52:36;34.97;;;17.38;;
23714;SDS011;12036;50.858;4.472;2024-01-11T01:55:04;35.00;;;17.98;;
23714;SDS011;12036;50.858;4.472;2024-01-11T01:57:32;34.00;;;17.08;;
23714;SDS011;12036;50.858;4.472;2024-01-11T01:59:59;37.08;;;18.58;;
23714;SDS011;12036;50.858;4.472;2024-01-11T02:02:27;40.40;;;18.75;;
23714;SDS011;12036;50.858;4.472;2024-01-11T02:04:53;36.78;;;18.25;;
23714;SDS011;12036;50.858;4.472;2024-01-11T02:07:19;37.83;;;17.40;;
23714;SDS011;12036;50.858;4.472;2024-01-11T02:09:45;39.92;;;18.00;;
23714;SDS011;12036;50.858;4.472;2024-01-11T02:12:12;36.40;;;16.88;;
23714;SDS011;12036;50.858;4.472;2024-01-11T02:14:38;36.75;;;17.05;;
23714;SDS011;12036;50.858;4.472;2024-01-11T02:17:03;34.33;;;16.88;;
23714;SDS011;12036;50.858;4.472;2024-01-11T02:19:29;37.97;;;17.77;;
23714;SDS011;12036;50.858;4.472;2024-01-11T02:21:55;35.20;;;17.60;;
23714;SDS011;12036;50.858;4.472;2024-01-11T02:24:24;35.00;;;17.10;;
23714;SDS011;12036;50.858;4.472;2024-01-11T02:26:57;36.75;;;17.17;;
23714;SDS011;12036;50.858;4.472;2024-01-11T02:29:27;39.22;;;17.20;;
23714;SDS011;12036;50.858;4.472;2024-01-11T02:31:55;36.88;;;15.43;;
23714;SDS011;12036;50.858;4.472;2024-01-11T02:34:21;32.65;;;15.93;;
23714;SDS011;12036;50.858;4.472;2024-01-11T02:36:49;33.28;;;15.68;;
23714;SDS011;12036;50.858;4.472;2024-01-11T02:39:16;35.92;;;17.00;;
23714;SDS011;12036;50.858;4.472;2024-01-11T02:41:43;33.42;;;17.10;;
23714;SDS011;12036;50.858;4.472;2024-01-11T02:44:09;36.38;;;16.85;;
23714;SDS011;12036;50.858;4.472;2024-01-11T02:46:35;34.58;;;17.13;;
23714;SDS011;12036;50.858;4.472;2024-01-11T02:49:00;32.33;;;16.92;;
23714;SDS011;12036;50.858;4.472;2024-01-11T02:51:26;36.67;;;17.40;;
23714;SDS011;12036;50.858;4.472;2024-01-11T02:53:52;35.22;;;17.25;;
23714;SDS011;12036;50.858;4.472;2024-01-11T02:56:17;32.78;;;17.00;;
23714;SDS011;12036;50.858;4.472;2024-01-11T02:58:43;33.70;;;17.02;;
23714;SDS011;12036;50.858;4.472;2024-01-11T03:01:09;34.67;;;17.55;;
23714;SDS011;12036;50.858;4.472;2024-01-11T03:03:34;33.75;;;17.02;;
23714;SDS011;12036;50.858;4.472;2024-01-11T03:06:00;31.27;;;16.15;;
23714;SDS011;12036;50.858;4.472;2024-01-11T03:08:26;37.05;;;16.00;;
23714;SDS011;12036;50.858;4.472;2024-01-11T03:10:52;37.47;;;17.67;;
23714;SDS011;12036;50.858;4.472;2024-01-11T03:13:17;33.90;;;16.77;;
23714;SDS011;12036;50.858;4.472;2024-01-11T03:15:43;35.38;;;17.20;;
23714;SDS011;12036;50.858;4.472;2024-01-11T03:18:09;38.58;;;17.83;;
23714;SDS011;12036;50.858;4.472;2024-01-11T03:20:35;41.38;;;16.55;;
23714;SDS011;12036;50.858;4.472;2024-01-11T03:23:00;40.42;;;17.88;;
23714;SDS011;12036;50.858;4.472;2024-01-11T03:25:26;33.40;;;16.75;;
23714;SDS011;12036;50.858;4.472;2024-01-11T03:27:54;36.03;;;16.35;;
23714;SDS011;12036;50.858;4.472;2024-01-11T03:30:19;35.90;;;15.50;;
23714;SDS011;12036;50.858;4.472;2024-01-11T03:32:45;39.55;;;16.95;;
23714;SDS011;12036;50.858;4.472;2024-01-11T03:35:10;35.28;;;16.58;;
23714;SDS011;12036;50.858;4.472;2024-01-11T03:37:36;33.97;;;16.27;;
23714;SDS011;12036;50.858;4.472;2024-01-11T03:40:05;38.47;;;17.15;;
23714;SDS011;12036;50.858;4.472;2024-01-11T03:42:31;33.40;;;17.15;;
23714;SDS011;12036;50.858;4.472;2024-01-11T03:44:56;36.15;;;16.63;;
23714;SDS011;12036;50.858;4.472;2024-01-11T03:47:22;37.50;;;16.52;;
23714;SDS011;12036;50.858;4.472;2024-01-11T03:49:48;38.33;;;16.70;;
23714;SDS011;12036;50.858;4.472;2024-01-11T03:52:13;37.67;;;15.85;;
23714;SDS011;12036;50.858;4.472;2024-01-11T03:54:39;35.25;;;16.80;;
23714;SDS011;12036;50.858;4.472;2024-01-11T03:57:05;35.25;;;16.30;;
23714;SDS011;12036;50.858;4.472;2024-01-11T03:59:31;38.25;;;17.70;;
23714;SDS011;12036;50.858;4.472;2024-01-11T04:01:57;36.55;;;17.48;;
23714;SDS011;12036;50.858;4.472;2024-01-11T04:04:23;31.67;;;16.60;;
23714;SDS011;12036;50.858;4.472;2024-01-11T04:06:48;36.65;;;16.42;;
23714;SDS011;12036;50.858;4.472;2024-01-11T04:09:14;39.47;;;17.63;;
23714;SDS011;12036;50.858;4.472;2024-01-11T04:11:40;35.50;;;16.05;;
23714;SDS011;12036;50.858;4.472;2024-01-11T04:14:06;34.00;;;16.20;;
23714;SDS011;12036;50.858;4.472;2024-01-11T04:16:32;34.53;;;16.60;;
23714;SDS011;12036;50.858;4.472;2024-01-11T04:18:57;35.90;;;15.57;;
23714;SDS011;12036;50.858;4.472;2024-01-11T04:21:23;33.95;;;16.40;;
23714;SDS011;12036;50.858;4.472;2024-01-11T04:23:50;31.40;;;15.82;;
23714;SDS011;12036;50.858;4.472;2024-01-11T04:26:16;35.63;;;16.60;;
23714;SDS011;12036;50.858;4.472;2024-01-11T04:28:43;35.72;;;16.35;;
23714;SDS011;12036;50.858;4.472;2024-01-11T04:31:10;36.42;;;17.48;;
23714;SDS011;12036;50.858;4.472;2024-01-11T04:33:35;35.97;;;15.93;;
23714;SDS011;12036;50.858;4.472;2024-01-11T04:36:04;36.13;;;16.63;;
23714;SDS011;12036;50.858;4.472;2024-01-11T04:38:31;32.78;;;16.00;;
23714;SDS011;12036;50.858;4.472;2024-01-11T04:40:56;33.53;;;16.00;;
23714;SDS011;12036;50.858;4.472;2024-01-11T04:43:22;35.83;;;15.85;;
23714;SDS011;12036;50.858;4.472;2024-01-11T04:45:47;30.92;;;16.00;;
23714;SDS011;12036;50.858;4.472;2024-01-11T04:48:13;38.60;;;15.77;;
23714;SDS011;12036;50.858;4.472;2024-01-11T04:50:39;38.92;;;17.35;;
23714;SDS011;12036;50.858;4.472;2024-01-11T04:53:04;37.55;;;16.27;;
23714;SDS011;12036;50.858;4.472;2024-01-11T04:55:30;40.58;;;17.08;;
23714;SDS011;12036;50.858;4.472;2024-01-11T04:57:55;29.95;;;15.88;;
23714;SDS011;12036;50.858;4.472;2024-01-11T05:00:21;34.70;;;16.70;;
23714;SDS011;12036;50.858;4.472;2024-01-11T05:02:46;38.88;;;16.90;;
23714;SDS011;12036;50.858;4.472;2024-01-11T05:05:12;38.15;;;18.17;;
23714;SDS011;12036;50.858;4.472;2024-01-11T05:07:38;43.33;;;16.88;;
23714;SDS011;12036;50.858;4.472;2024-01-11T05:10:04;40.72;;;17.70;;
23714;SDS011;12036;50.858;4.472;2024-01-11T05:12:30;34.72;;;16.50;;
23714;SDS011;12036;50.858;4.472;2024-01-11T05:14:55;33.92;;;17.00;;
23714;SDS011;12036;50.858;4.472;2024-01-11T05:17:21;40.20;;;17.48;;
23714;SDS011;12036;50.858;4.472;2024-01-11T05:19:47;35.42;;;16.90;;
23714;SDS011;12036;50.858;4.472;2024-01-11T05:22:13;43.80;;;18.27;;
23714;SDS011;12036;50.858;4.472;2024-01-11T05:24:38;33.10;;;16.85;;
23714;SDS011;12036;50.858;4.472;2024-01-11T05:27:04;36.13;;;17.15;;
23714;SDS011;12036;50.858;4.472;2024-01-11T05:29:30;38.33;;;18.08;;
23714;SDS011;12036;50.858;4.472;2024-01-11T05:31:57;35.72;;;17.45;;
23714;SDS011;12036;50.858;4.472;2024-01-11T05:34:22;38.42;;;17.42;;
23714;SDS011;12036;50.858;4.472;2024-01-11T05:36:48;40.58;;;17.73;;
23714;SDS011;12036;50.858;4.472;2024-01-11T05:39:14;36.85;;;17.23;;
23714;SDS011;12036;50.858;4.472;2024-01-11T05:41:42;42.28;;;18.17;;
23714;SDS011;12036;50.858;4.472;2024-01-11T05:44:09;42.00;;;17.77;;
23714;SDS011;12036;50.858;4.472;2024-01-11T05:46:34;34.45;;;17.88;;
23714;SDS011;12036;50.858;4.472;2024-01-11T05:49:00;34.63;;;17.00;;
23714;SDS011;12036;50.858;4.472;2024-01-11T05:51:26;40.30;;;17.88;;
23714;SDS011;12036;50.858;4.472;2024-01-11T05:53:52;32.30;;;16.25;;
23714;SDS011;12036;50.858;4.472;2024-01-11T05:56:18;37.78;;;18.60;;
23714;SDS011;12036;50.858;4.472;2024-01-11T05:58:45;39.88;;;17.85;;
23714;SDS011;12036;50.858;4.472;2024-01-11T06:01:11;37.47;;;18.45;;
23714;SDS011;12036;50.858;4.472;2024-01-11T06:03:37;38.72;;;17.70;;
23714;SDS011;12036;50.858;4.472;2024-01-11T06:06:05;36.80;;;17.52;;
23714;SDS011;12036;50.858;4.472;2024-01-11T06:08:31;31.30;;;16.60;;
23714;SDS011;12036;50.858;4.472;2024-01-11T06:10:57;37.28;;;17.05;;
23714;SDS011;12036;50.858;4.472;2024-01-11T06:13:23;36.20;;;17.27;;
23714;SDS011;12036;50.858;4.472;2024-01-11T06:15:48;35.55;;;17.45;;
23714;SDS011;12036;50.858;4.472;2024-01-11T06:18:15;35.42;;;16.60;;
23714;SDS011;12036;50.858;4.472;2024-01-11T06:20:41;36.03;;;17.83;;
23714;SDS011;12036;50.858;4.472;2024-01-11T06:23:06;35.53;;;17.30;;
23714;SDS011;12036;50.858;4.472;2024-01-11T06:25:32;32.95;;;17.45;;
23714;SDS011;12036;50.858;4.472;2024-01-11T06:27:57;33.60;;;16.60;;
23714;SDS011;12036;50.858;4.472;2024-01-11T06:30:23;37.40;;;17.92;;
23714;SDS011;12036;50.858;4.472;2024-01-11T06:32:49;37.17;;;17.85;;
23714;SDS011;12036;50.858;4.472;2024-01-11T06:35:14;34.42;;;16.60;;
23714;SDS011;12036;50.858;4.472;2024-01-11T06:37:40;35.88;;;16.15;;
23714;SDS011;12036;50.858;4.472;2024-01-11T06:40:06;37.90;;;17.45;;
23714;SDS011;12036;50.858;4.472;2024-01-11T06:42:33;37.10;;;18.38;;
23714;SDS011;12036;50.858;4.472;2024-01-11T06:44:59;37.80;;;18.45;;
23714;SDS011;12036;50.858;4.472;2024-01-11T06:47:25;35.83;;;16.27;;
23714;SDS011;12036;50.858;4.472;2024-01-11T06:49:50;36.33;;;17.23;;
23714;SDS011;12036;50.858;4.472;2024-01-11T06:52:16;35.45;;;18.02;;
23714;SDS011;12036;50.858;4.472;2024-01-11T06:54:42;36.45;;;17.98;;
23714;SDS011;12036;50.858;4.472;2024-01-11T06:57:07;39.83;;;17.00;;
23714;SDS011;12036;50.858;4.472;2024-01-11T06:59:33;47.55;;;23.58;;
23714;SDS011;12036;50.858;4.472;2024-01-11T07:01:59;44.88;;;21.05;;
23714;SDS011;12036;50.858;4.472;2024-01-11T07:04:24;78.28;;;33.97;;
23714;SDS011;12036;50.858;4.472;2024-01-11T07:06:50;50.60;;;22.83;;
23714;SDS011;12036;50.858;4.472;2024-01-11T07:09:15;57.05;;;23.63;;
23714;SDS011;12036;50.858;4.472;2024-01-11T07:11:42;46.35;;;22.40;;
23714;SDS011;12036;50.858;4.472;2024-01-11T07:14:08;55.60;;;22.60;;
23714;SDS011;12036;50.858;4.472;2024-01-11T07:16:34;49.15;;;20.65;;
23714;SDS011;12036;50.858;4.472;2024-01-11T07:19:00;49.25;;;21.38;;
23714;SDS011;12036;50.858;4.472;2024-01-11T07:21:26;43.83;;;19.95;;
23714;SDS011;12036;50.858;4.472;2024-01-11T07:23:56;41.25;;;19.85;;
23714;SDS011;12036;50.858;4.472;2024-01-11T07:26:24;43.92;;;18.55;;
23714;SDS011;12036;50.858;4.472;2024-01-11T07:28:50;39.63;;;18.65;;
23714;SDS011;12036;50.858;4.472;2024-01-11T07:31:16;42.70;;;19.60;;
23714;SDS011;12036;50.858;4.472;2024-01-11T07:33:42;36.40;;;18.80;;
23714;SDS011;12036;50.858;4.472;2024-01-11T07:36:08;42.33;;;18.83;;
23714;SDS011;12036;50.858;4.472;2024-01-11T07:38:34;40.20;;;18.55;;
23714;SDS011;12036;50.858;4.472;2024-01-11T07:41:00;41.83;;;19.10;;
23714;SDS011;12036;50.858;4.472;2024-01-11T07:43:26;37.40;;;18.15;;
23714;SDS011;12036;50.858;4.472;2024-01-11T07:45:53;33.60;;;17.65;;
23714;SDS011;12036;50.858;4.472;2024-01-11T07:48:21;35.95;;;17.73;;
23714;SDS011;12036;50.858;4.472;2024-01-11T07:50:48;40.60;;;18.67;;
23714;SDS011;12036;50.858;4.472;2024-01-11T07:53:13;38.88;;;18.30;;
23714;SDS011;12036;50.858;4.472;2024-01-11T07:55:40;36.67;;;19.23;;
23714;SDS011;12036;50.858;4.472;2024-01-11T07:58:05;42.17;;;18.58;;
23714;SDS011;12036;50.858;4.472;2024-01-11T08:00:32;38.17;;;18.00;;
23714;SDS011;12036;50.858;4.472;2024-01-11T08:02:58;42.83;;;19.33;;
23714;SDS011;12036;50.858;4.472;2024-01-11T08:05:24;39.28;;;18.27;;
23714;SDS011;12036;50.858;4.472;2024-01-11T08:07:50;35.53;;;18.60;;
23714;SDS011;12036;50.858;4.472;2024-01-11T08:10:16;39.58;;;20.15;;
23714;SDS011;12036;50.858;4.472;2024-01-11T08:12:42;48.70;;;19.38;;
23714;SDS011;12036;50.858;4.472;2024-01-11T08:15:07;39.85;;;18.23;;
23714;SDS011;12036;50.858;4.472;2024-01-11T08:17:37;37.97;;;17.60;;
23714;SDS011;12036;50.858;4.472;2024-01-11T08:20:04;43.28;;;19.15;;
23714;SDS011;12036;50.858;4.472;2024-01-11T08:22:33;40.15;;;19.45;;
23714;SDS011;12036;50.858;4.472;2024-01-11T08:25:01;39.75;;;18.45;;
23714;SDS011;12036;50.858;4.472;2024-01-11T08:27:29;43.33;;;19.23;;
23714;SDS011;12036;50.858;4.472;2024-01-11T08:29:56;40.08;;;18.30;;
23714;SDS011;12036;50.858;4.472;2024-01-11T08:32:22;38.63;;;19.08;;
23714;SDS011;12036;50.858;4.472;2024-01-11T08:34:48;45.28;;;19.13;;
23714;SDS011;12036;50.858;4.472;2024-01-11T08:37:13;40.08;;;19.98;;
23714;SDS011;12036;50.858;4.472;2024-01-11T08:39:39;41.53;;;20.63;;
23714;SDS011;12036;50.858;4.472;2024-01-11T08:42:05;42.30;;;20.15;;
23714;SDS011;12036;50.858;4.472;2024-01-11T08:44:31;38.92;;;19.13;;
23714;SDS011;12036;50.858;4.472;2024-01-11T08:46:57;41.70;;;19.58;;
23714;SDS011;12036;50.858;4.472;2024-01-11T08:49:24;41.17;;;18.38;;
23714;SDS011;12036;50.858;4.472;2024-01-11T08:51:50;41.60;;;20.23;;
23714;SDS011;12036;50.858;4.472;2024-01-11T08:54:16;39.70;;;18.88;;
23714;SDS011;12036;50.858;4.472;2024-01-11T08:56:42;41.88;;;19.13;;
23714;SDS011;12036;50.858;4.472;2024-01-11T08:59:07;43.15;;;20.77;;
23714;SDS011;12036;50.858;4.472;2024-01-11T09:01:34;44.60;;;20.35;;
23714;SDS011;12036;50.858;4.472;2024-01-11T09:04:01;43.15;;;21.15;;
23714;SDS011;12036;50.858;4.472;2024-01-11T09:06:27;39.45;;;19.58;;
23714;SDS011;12036;50.858;4.472;2024-01-11T09:08:52;45.90;;;21.00;;
23714;SDS011;12036;50.858;4.472;2024-01-11T09:11:18;39.63;;;20.90;;
23714;SDS011;12036;50.858;4.472;2024-01-11T09:13:44;43.17;;;19.30;;
23714;SDS011;12036;50.858;4.472;2024-01-11T09:16:13;46.63;;;20.80;;
23714;SDS011;12036;50.858;4.472;2024-01-11T09:18:43;47.30;;;20.58;;
23714;SDS011;12036;50.858;4.472;2024-01-11T09:21:09;41.45;;;20.73;;
23714;SDS011;12036;50.858;4.472;2024-01-11T09:23:35;41.40;;;20.17;;
23714;SDS011;12036;50.858;4.472;2024-01-11T09:26:01;43.92;;;20.95;;
23714;SDS011;12036;50.858;4.472;2024-01-11T09:28:27;42.88;;;20.77;;
23714;SDS011;12036;50.858;4.472;2024-01-11T09:30:53;41.50;;;20.02;;
23714;SDS011;12036;50.858;4.472;2024-01-11T09:33:21;45.08;;;22.05;;
23714;SDS011;12036;50.858;4.472;2024-01-11T09:35:47;44.90;;;21.17;;
23714;SDS011;12036;50.858;4.472;2024-01-11T09:38:12;45.40;;;21.23;;
23714;SDS011;12036;50.858;4.472;2024-01-11T09:40:38;47.35;;;20.20;;
23714;SDS011;12036;50.858;4.472;2024-01-11T09:43:03;46.20;;;21.95;;
23714;SDS011;12036;50.858;4.472;2024-01-11T09:45:31;49.83;;;22.63;;
23714;SDS011;12036;50.858;4.472;2024-01-11T09:47:57;47.45;;;21.67;;
23714;SDS011;12036;50.858;4.472;2024-01-11T09:50:23;42.33;;;20.98;;
23714;SDS011;12036;50.858;4.472;2024-01-11T09:52:49;45.05;;;20.60;;
23714;SDS011;12036;50.858;4.472;2024-01-11T09:55:16;43.65;;;20.77;;
23714;SDS011;12036;50.858;4.472;2024-01-11T09:57:46;49.78;;;21.20;;
23714;SDS011;12036;50.858;4.472;2024-01-11T10:00:13;49.77;;;22.23;;
23714;SDS011;12036;50.858;4.472;2024-01-11T10:02:41;42.65;;;20.27;;
23714;SDS011;12036;50.858;4.472;2024-01-11T10:05:07;43.78;;;20.63;;
23714;SDS011;12036;50.858;4.472;2024-01-11T10:07:33;46.17;;;22.40;;
23714;SDS011;12036;50.858;4.472;2024-01-11T10:09:59;43.05;;;20.38;;
23714;SDS011;12036;50.858;4.472;2024-01-11T10:12:26;48.28;;;22.88;;
23714;SDS011;12036;50.858;4.472;2024-01-11T10:14:52;47.47;;;22.88;;
23714;SDS011;12036;50.858;4.472;2024-01-11T10:17:19;42.78;;;22.23;;
23714;SDS011;12036;50.858;4.472;2024-01-11T10:19:45;45.05;;;22.13;;
23714;SDS011;12036;50.858;4.472;2024-01-11T10:22:11;46.30;;;22.63;;
23714;SDS011;12036;50.858;4.472;2024-01-11T10:24:42;36.28;;;17.63;;
23714;SDS011;12036;50.858;4.472;2024-01-11T10:27:08;49.53;;;23.58;;
23714;SDS011;12036;50.858;4.472;2024-01-11T10:29:35;46.65;;;23.77;;
23714;SDS011;12036;50.858;4.472;2024-01-11T10:32:03;53.33;;;26.77;;
23714;SDS011;12036;50.858;4.472;2024-01-11T10:34:29;49.85;;;25.33;;
23714;SDS011;12036;50.858;4.472;2024-01-11T10:36:56;50.67;;;23.95;;
23714;SDS011;12036;50.858;4.472;2024-01-11T10:39:25;40.58;;;22.00;;
23714;SDS011;12036;50.858;4.472;2024-01-11T10:41:55;46.78;;;24.42;;
23714;SDS011;12036;50.858;4.472;2024-01-11T10:44:33;49.63;;;22.50;;
23714;SDS011;12036;50.858;4.472;2024-01-11T10:46:59;45.20;;;22.35;;
23714;SDS011;12036;50.858;4.472;2024-01-11T10:49:28;47.17;;;22.58;;
23714;SDS011;12036;50.858;4.472;2024-01-11T10:52:01;44.08;;;22.13;;
23714;SDS011;12036;50.858;4.472;2024-01-11T10:54:28;45.47;;;22.52;;
23714;SDS011;12036;50.858;4.472;2024-01-11T10:56:56;47.20;;;22.33;;
23714;SDS011;12036;50.858;4.472;2024-01-11T10:59:29;47.38;;;23.52;;
23714;SDS011;12036;50.858;4.472;2024-01-11T11:01:57;46.45;;;23.17;;
23714;SDS011;12036;50.858;4.472;2024-01-11T11:06:55;47.63;;;23.85;;
23714;SDS011;12036;50.858;4.472;2024-01-11T11:09:24;45.78;;;22.65;;
23714;SDS011;12036;50.858;4.472;2024-01-11T11:11:51;46.72;;;23.40;;
23714;SDS011;12036;50.858;4.472;2024-01-11T11:14:21;47.47;;;22.17;;
23714;SDS011;12036;50.858;4.472;2024-01-11T11:16:47;41.80;;;21.67;;
23714;SDS011;12036;50.858;4.472;2024-01-11T11:19:14;45.22;;;22.10;;
23714;SDS011;12036;50.858;4.472;2024-01-11T11:21:43;47.60;;;22.77;;
23714;SDS011;12036;50.858;4.472;2024-01-11T11:24:10;43.53;;;21.90;;
23714;SDS011;12036;50.858;4.472;2024-01-11T11:26:41;46.25;;;22.98;;
23714;SDS011;12036;50.858;4.472;2024-01-11T11:29:07;54.92;;;25.55;;
23714;SDS011;12036;50.858;4.472;2024-01-11T11:31:37;41.80;;;21.08;;
23714;SDS011;12036;50.858;4.472;2024-01-11T11:34:18;54.25;;;24.20;;
23714;SDS011;12036;50.858;4.472;2024-01-11T11:36:48;47.47;;;23.55;;
23714;SDS011;12036;50.858;4.472;2024-01-11T11:39:19;47.95;;;23.77;;
23714;SDS011;12036;50.858;4.472;2024-01-11T11:41:45;39.85;;;21.25;;
23714;SDS011;12036;50.858;4.472;2024-01-11T11:44:12;39.47;;;19.92;;
23714;SDS011;12036;50.858;4.472;2024-01-11T11:46:40;39.88;;;20.40;;
23714;SDS011;12036;50.858;4.472;2024-01-11T11:49:06;33.85;;;19.33;;
23714;SDS011;12036;50.858;4.472;2024-01-11T11:51:32;40.55;;;19.92;;
23714;SDS011;12036;50.858;4.472;2024-01-11T11:53:58;39.40;;;19.85;;
23714;SDS011;12036;50.858;4.472;2024-01-11T11:56:23;39.55;;;20.48;;
23714;SDS011;12036;50.858;4.472;2024-01-11T11:58:49;41.00;;;19.88;;
23714;SDS011;12036;50.858;4.472;2024-01-11T12:01:17;45.58;;;20.83;;
23714;SDS011;12036;50.858;4.472;2024-01-11T12:03:44;36.65;;;19.52;;
23714;SDS011;12036;50.858;4.472;2024-01-11T12:06:14;35.60;;;19.30;;
23714;SDS011;12036;50.858;4.472;2024-01-11T12:08:45;44.20;;;20.58;;
23714;SDS011;12036;50.858;4.472;2024-01-11T12:11:12;36.80;;;19.07;;
23714;SDS011;12036;50.858;4.472;2024-01-11T12:13:40;35.10;;;18.27;;
23714;SDS011;12036;50.858;4.472;2024-01-11T12:16:06;37.28;;;17.85;;
23714;SDS011;12036;50.858;4.472;2024-01-11T12:18:32;44.45;;;19.70;;
23714;SDS011;12036;50.858;4.472;2024-01-11T12:20:57;38.05;;;19.20;;
23714;SDS011;12036;50.858;4.472;2024-01-11T12:23:23;37.33;;;18.77;;
23714;SDS011;12036;50.858;4.472;2024-01-11T12:25:49;40.35;;;18.90;;
23714;SDS011;12036;50.858;4.472;2024-01-11T12:28:15;37.53;;;19.40;;
23714;SDS011;12036;50.858;4.472;2024-01-11T12:30:41;36.45;;;18.92;;
23714;SDS011;12036;50.858;4.472;2024-01-11T12:33:07;39.03;;;19.27;;
23714;SDS011;12036;50.858;4.472;2024-01-11T12:35:34;35.63;;;18.83;;
23714;SDS011;12036;50.858;4.472;2024-01-11T12:38:04;34.50;;;16.55;;
23714;SDS011;12036;50.858;4.472;2024-01-11T12:40:36;34.67;;;17.90;;
23714;SDS011;12036;50.858;4.472;2024-01-11T12:43:03;33.17;;;16.52;;
23714;SDS011;12036;50.858;4.472;2024-01-11T12:45:29;33.67;;;16.50;;
23714;SDS011;12036;50.858;4.472;2024-01-11T12:47:58;34.00;;;18.83;;
23714;SDS011;12036;50.858;4.472;2024-01-11T12:50:25;30.95;;;16.48;;
23714;SDS011;12036;50.858;4.472;2024-01-11T12:56:03;32.05;;;16.35;;
23714;SDS011;12036;50.858;4.472;2024-01-11T12:58:36;30.70;;;16.30;;
23714;SDS011;12036;50.858;4.472;2024-01-11T13:01:03;31.52;;;16.60;;
23714;SDS011;12036;50.858;4.472;2024-01-11T13:03:30;34.45;;;16.50;;
23714;SDS011;12036;50.858;4.472;2024-01-11T13:05:56;31.33;;;15.82;;
23714;SDS011;12036;50.858;4.472;2024-01-11T13:08:22;29.42;;;16.27;;
23714;SDS011;12036;50.858;4.472;2024-01-11T13:10:49;32.25;;;16.27;;
23714;SDS011;12036;50.858;4.472;2024-01-11T13:13:14;31.05;;;16.33;;
23714;SDS011;12036;50.858;4.472;2024-01-11T13:15:40;33.35;;;18.10;;
23714;SDS011;12036;50.858;4.472;2024-01-11T13:18:06;31.60;;;16.40;;
23714;SDS011;12036;50.858;4.472;2024-01-11T13:20:31;27.80;;;15.75;;
23714;SDS011;12036;50.858;4.472;2024-01-11T13:28:05;29.52;;;15.45;;
23714;SDS011;12036;50.858;4.472;2024-01-11T13:30:31;29.92;;;17.13;;
23714;SDS011;12036;50.858;4.472;2024-01-11T13:32:57;31.45;;;16.63;;
23714;SDS011;12036;50.858;4.472;2024-01-11T13:35:24;29.80;;;15.70;;
23714;SDS011;12036;50.858;4.472;2024-01-11T13:37:49;30.90;;;15.75;;
23714;SDS011;12036;50.858;4.472;2024-01-11T13:40:15;33.50;;;15.45;;
23714;SDS011;12036;50.858;4.472;2024-01-11T13:42:41;35.45;;;17.70;;
23714;SDS011;12036;50.858;4.472;2024-01-11T13:45:07;34.00;;;17.52;;
23714;SDS011;12036;50.858;4.472;2024-01-11T13:47:37;33.05;;;16.45;;
23714;SDS011;12036;50.858;4.472;2024-01-11T13:50:02;32.45;;;17.42;;
23714;SDS011;12036;50.858;4.472;2024-01-11T13:52:28;27.42;;;15.18;;
23714;SDS011;12036;50.858;4.472;2024-01-11T13:54:54;34.83;;;16.40;;
23714;SDS011;12036;50.858;4.472;2024-01-11T13:57:19;28.08;;;16.15;;
23714;SDS011;12036;50.858;4.472;2024-01-11T13:59:46;29.40;;;16.77;;
23714;SDS011;12036;50.858;4.472;2024-01-11T14:02:11;29.05;;;15.68;;
23714;SDS011;12036;50.858;4.472;2024-01-11T14:04:37;29.55;;;15.07;;
23714;SDS011;12036;50.858;4.472;2024-01-11T14:07:04;31.67;;;15.98;;
23714;SDS011;12036;50.858;4.472;2024-01-11T14:09:30;28.88;;;15.52;;
23714;SDS011;12036;50.858;4.472;2024-01-11T14:11:56;28.10;;;14.90;;
23714;SDS011;12036;50.858;4.472;2024-01-11T14:14:21;25.63;;;13.93;;
23714;SDS011;12036;50.858;4.472;2024-01-11T14:16:47;26.48;;;14.70;;
23714;SDS011;12036;50.858;4.472;2024-01-11T14:19:13;27.02;;;14.32;;
23714;SDS011;12036;50.858;4.472;2024-01-11T14:21:39;29.52;;;15.32;;
23714;SDS011;12036;50.858;4.472;2024-01-11T14:24:04;25.77;;;13.52;;
23714;SDS011;12036;50.858;4.472;2024-01-11T14:26:31;25.58;;;13.75;;